OS72 weather

Tiyas Air Base
Tiyas, Homs Governorate, Syria

Public forecast

Using degrees Celsius for public forecast. Weather courtesy of forecast.io.

METAR (pilot weather report)

Closest report is Damascus International Airport, 86.8 nm (160.7 km) SW. Retrieved 2019/06/24 08:00 UTC (10 minutes ago):

OSDI 240800Z 08006KT CAVOK 33/07 Q1012

TAF (pilot weather forecast)

Closest forecast is Damascus International Airport, 86.8 nm (160.7 km) SW. Retrieved 2019/06/24 06:00 UTC (2 hours ago):

TAF OSDI 240500Z 2406/2512 22010KT CAVOK TEMPO 2409/2418 28010G20KT 9999 FEW030